createdAt,value
2022-11-26T00:00:52.731Z,101774.84
2022-11-26T00:03:19.537Z,101766.59
2022-11-26T00:05:48.744Z,101762.72
2022-11-26T00:08:35.490Z,101770.88
2022-11-26T00:11:02.694Z,101770.41
2022-11-26T00:13:30.985Z,101772.28
2022-11-26T00:15:57.526Z,101736.53
2022-11-26T00:18:26.556Z,101737.72
2022-11-26T00:21:00.014Z,101730.44
2022-11-26T00:23:27.811Z,101793.00
2022-11-26T00:25:57.327Z,101780.72
2022-11-26T00:28:33.979Z,101790.66
2022-11-26T00:31:03.143Z,101794.13
2022-11-26T00:33:30.624Z,101800.38
2022-11-26T00:36:20.294Z,101799.63
2022-11-26T00:38:47.847Z,101793.09
2022-11-26T00:41:19.405Z,101794.03
2022-11-26T00:43:46.885Z,101811.34
2022-11-26T00:46:22.686Z,101811.66
2022-11-26T00:48:49.557Z,101789.25
2022-11-26T00:51:23.115Z,101779.19
2022-11-26T00:53:50.093Z,101797.44
2022-11-26T00:56:19.651Z,101821.88
2022-11-26T00:58:47.069Z,101828.94
2022-11-26T01:01:17.598Z,101828.44
2022-11-26T01:03:44.178Z,101823.25
2022-11-26T01:06:18.176Z,101826.94
2022-11-26T01:08:44.958Z,101835.69
2022-11-26T01:11:17.173Z,101838.38
2022-11-26T01:13:45.073Z,101852.50
2022-11-26T01:16:29.804Z,101855.06
2022-11-26T01:18:58.634Z,101852.31
2022-11-26T01:21:27.699Z,101835.63
2022-11-26T01:23:54.164Z,101860.13
2022-11-26T01:26:23.497Z,101862.00
2022-11-26T01:28:50.290Z,101845.16
2022-11-26T01:31:19.424Z,101861.38
2022-11-26T01:33:46.594Z,101871.72
2022-11-26T01:36:38.203Z,101874.53
2022-11-26T01:39:10.415Z,101878.69
2022-11-26T01:41:40.434Z,101880.91
2022-11-26T01:44:08.712Z,101855.41
2022-11-26T01:46:36.628Z,101884.19
2022-11-26T01:49:35.609Z,101879.00
2022-11-26T01:52:04.985Z,101881.06
2022-11-26T01:54:33.219Z,101885.00
2022-11-26T01:57:07.558Z,101894.16
2022-11-26T01:59:37.241Z,101899.53
2022-11-26T02:02:03.786Z,101898.50
2022-11-26T02:04:37.425Z,101862.09
2022-11-26T02:07:04.599Z,101904.84
2022-11-26T02:09:31.615Z,101843.44
2022-11-26T02:11:58.122Z,101897.84
2022-11-26T02:14:28.850Z,101885.75
2022-11-26T02:17:07.498Z,101902.00
2022-11-26T02:19:58.412Z,101895.50
2022-11-26T02:22:46.725Z,101901.50
2022-11-26T02:25:43.316Z,101906.41
2022-11-26T02:28:33.434Z,101887.38
2022-11-26T02:31:08.427Z,101911.69
2022-11-26T02:34:03.966Z,101835.47
2022-11-26T02:36:50.788Z,101909.25
2022-11-26T02:39:22.700Z,101916.19
2022-11-26T02:41:55.095Z,101913.41
2022-11-26T02:44:24.440Z,101915.72
2022-11-26T02:49:22.448Z,101907.22
2022-11-26T02:51:53.734Z,101908.09
2022-11-26T02:54:21.294Z,101901.75
2022-11-26T02:56:48.711Z,101905.13
2022-11-26T02:59:15.968Z,101895.22
2022-11-26T03:01:50.375Z,101854.38
2022-11-26T03:04:20.639Z,101904.03
2022-11-26T03:06:47.402Z,101890.75
2022-11-26T03:09:17.645Z,101906.03
2022-11-26T03:11:44.965Z,101905.19
2022-11-26T03:14:11.444Z,101887.16
2022-11-26T03:16:38.067Z,101898.84
2022-11-26T03:19:04.614Z,101899.28
2022-11-26T03:21:34.416Z,101895.00
2022-11-26T03:24:01.021Z,101871.66
2022-11-26T03:26:27.492Z,101895.63
2022-11-26T03:28:54.028Z,101897.84
2022-11-26T03:31:20.836Z,101899.72
2022-11-26T03:33:47.360Z,101900.75
2022-11-26T03:36:13.791Z,101894.81
2022-11-26T03:38:40.375Z,101895.00
2022-11-26T03:41:06.849Z,101903.91
2022-11-26T03:43:33.347Z,101907.94
2022-11-26T03:45:59.871Z,101848.56
2022-11-26T03:48:26.377Z,101910.81
2022-11-26T03:50:52.914Z,101912.53
2022-11-26T03:53:20.327Z,101909.47
2022-11-26T03:55:47.591Z,101906.38
2022-11-26T03:58:14.204Z,101913.97
2022-11-26T04:00:40.797Z,101903.41
2022-11-26T04:03:07.309Z,101880.13
2022-11-26T04:05:33.818Z,101875.72
2022-11-26T04:08:00.345Z,101922.53
2022-11-26T04:10:27.968Z,101928.53
2022-11-26T04:12:54.629Z,101943.94
2022-11-26T04:15:21.064Z,101947.16
2022-11-26T04:17:47.553Z,101941.84
2022-11-26T04:20:14.280Z,101939.50
2022-11-26T04:22:41.132Z,101939.44
2022-11-26T04:25:08.000Z,101918.34
2022-11-26T04:27:34.715Z,101949.19
2022-11-26T04:30:01.187Z,101950.03
2022-11-26T04:32:27.751Z,101904.22
2022-11-26T04:34:54.497Z,101955.16
2022-11-26T04:37:21.055Z,101960.22
2022-11-26T04:39:47.504Z,101970.75
2022-11-26T04:42:13.982Z,101982.47
2022-11-26T04:44:40.596Z,101940.47
2022-11-26T04:47:07.188Z,101998.94
2022-11-26T04:49:33.684Z,101991.25
2022-11-26T04:52:00.124Z,101995.03
2022-11-26T04:54:26.599Z,101992.09
2022-11-26T04:56:53.091Z,102013.31
2022-11-26T04:59:19.612Z,102008.28
2022-11-26T05:01:46.211Z,102014.03
2022-11-26T05:04:12.715Z,101876.84
2022-11-26T05:06:39.252Z,102012.41
2022-11-26T05:09:05.870Z,101979.06
2022-11-26T05:11:32.303Z,101955.72
2022-11-26T05:13:58.729Z,102027.47
2022-11-26T05:16:25.232Z,102008.81
2022-11-26T05:18:51.793Z,101960.09
2022-11-26T05:21:18.273Z,102014.63
2022-11-26T05:23:44.804Z,102032.44
2022-11-26T05:26:11.274Z,101989.72
2022-11-26T05:28:38.013Z,102013.69
2022-11-26T05:31:04.926Z,102030.91
2022-11-26T05:33:31.756Z,101993.81
2022-11-26T05:35:58.281Z,102045.19
2022-11-26T05:38:24.804Z,102043.63
2022-11-26T05:40:51.393Z,102045.41
2022-11-26T05:43:18.201Z,102035.72
2022-11-26T05:45:44.778Z,102016.53
2022-11-26T05:48:11.509Z,102038.28
2022-11-26T05:50:38.019Z,102039.25
2022-11-26T05:53:04.978Z,102017.53
2022-11-26T05:55:31.632Z,102035.69
2022-11-26T05:57:58.274Z,102011.13
2022-11-26T06:00:24.802Z,102032.25
2022-11-26T06:02:59.989Z,102053.50
2022-11-26T06:05:27.186Z,102009.13
2022-11-26T06:07:53.678Z,102047.75
2022-11-26T06:10:20.280Z,102031.00
2022-11-26T06:12:46.710Z,102062.56
2022-11-26T06:15:13.453Z,102037.63
2022-11-26T06:17:39.979Z,102059.28
2022-11-26T06:20:07.017Z,102020.19
2022-11-26T06:22:40.841Z,102070.13
2022-11-26T06:25:09.214Z,102071.16
2022-11-26T06:27:36.686Z,102029.66
2022-11-26T06:30:04.865Z,102053.81
2022-11-26T06:32:31.961Z,102066.66
2022-11-26T06:34:58.623Z,102070.78
2022-11-26T06:37:25.719Z,102049.44
2022-11-26T06:39:52.464Z,102076.72
2022-11-26T06:42:19.313Z,102103.38
2022-11-26T06:44:46.442Z,102073.47
2022-11-26T06:47:13.686Z,102111.69
2022-11-26T06:49:40.645Z,102116.00
2022-11-26T06:52:08.394Z,102109.34
2022-11-26T06:54:34.873Z,102081.09
2022-11-26T06:57:01.378Z,102091.13
2022-11-26T06:59:27.949Z,102100.94
2022-11-26T07:01:54.481Z,102104.06
2022-11-26T07:04:21.029Z,102120.13
2022-11-26T07:06:47.521Z,102120.50
2022-11-26T07:09:14.339Z,102114.69
2022-11-26T07:11:41.469Z,102121.50
2022-11-26T07:14:08.824Z,102124.81
2022-11-26T07:16:35.912Z,102119.13
2022-11-26T07:19:03.290Z,102116.47
2022-11-26T07:21:31.038Z,102115.56
2022-11-26T07:23:58.469Z,102120.19
2022-11-26T07:26:24.952Z,102120.50
2022-11-26T07:28:51.500Z,102109.84
2022-11-26T07:31:20.717Z,102115.16
2022-11-26T07:33:47.639Z,102127.81
2022-11-26T07:36:26.371Z,102126.25
2022-11-26T07:38:54.701Z,102135.50
2022-11-26T07:41:21.472Z,102110.41
2022-11-26T07:43:48.040Z,102122.78
2022-11-26T07:46:17.144Z,102126.69
2022-11-26T07:48:43.944Z,102124.41
2022-11-26T07:51:19.610Z,102112.72
2022-11-26T07:53:46.684Z,102123.16
2022-11-26T07:56:13.361Z,102124.59
2022-11-26T07:58:39.866Z,102138.13
2022-11-26T08:01:11.938Z,102136.91
2022-11-26T08:03:43.781Z,102135.03
2022-11-26T08:06:13.293Z,102098.56
2022-11-26T08:08:40.127Z,102142.16
2022-11-26T08:11:25.591Z,102140.56
2022-11-26T08:14:00.064Z,102151.06
2022-11-26T08:16:28.800Z,102149.31
2022-11-26T08:18:57.376Z,102154.69
2022-11-26T08:21:24.290Z,102116.31
2022-11-26T08:23:52.111Z,102133.69
2022-11-26T08:26:27.432Z,102070.06
2022-11-26T08:29:00.156Z,102162.78
2022-11-26T08:31:28.090Z,102150.75
2022-11-26T08:34:01.822Z,102052.09
2022-11-26T08:36:29.953Z,102165.34
2022-11-26T08:38:57.027Z,102160.03
2022-11-26T08:41:24.184Z,102092.94
2022-11-26T08:44:07.717Z,102156.63
2022-11-26T08:46:39.862Z,102162.56
2022-11-26T08:49:08.386Z,102114.00
2022-11-26T08:51:34.956Z,102161.28
2022-11-26T08:54:02.135Z,102150.97
2022-11-26T08:56:29.081Z,102158.19
2022-11-26T08:58:55.734Z,102158.06
2022-11-26T09:01:24.943Z,102165.53
2022-11-26T09:03:53.677Z,102159.97
2022-11-26T09:06:21.349Z,102161.00
2022-11-26T09:09:06.470Z,102155.38
2022-11-26T09:11:35.892Z,102174.47
2022-11-26T09:14:02.645Z,102132.59
2022-11-26T09:16:29.560Z,102163.09
2022-11-26T09:18:56.416Z,102161.59
2022-11-26T09:21:23.087Z,102155.16
2022-11-26T09:23:49.728Z,102034.50
2022-11-26T09:26:16.571Z,102166.09
2022-11-26T09:28:43.063Z,102168.34
2022-11-26T09:31:09.514Z,102128.53
2022-11-26T09:33:36.015Z,102164.13
2022-11-26T09:36:05.905Z,102170.53
2022-11-26T09:38:32.982Z,102169.44
2022-11-26T09:41:36.607Z,102179.13
2022-11-26T09:44:22.346Z,102183.56
2022-11-26T09:47:15.359Z,102195.38
2022-11-26T09:49:57.225Z,102187.13
2022-11-26T09:52:27.481Z,102192.63
2022-11-26T09:55:03.199Z,102153.06
2022-11-26T09:57:35.935Z,102191.47
2022-11-26T10:00:24.505Z,102195.66
2022-11-26T10:02:55.676Z,102201.38
2022-11-26T10:05:27.445Z,102185.91
2022-11-26T10:08:12.873Z,102191.84
2022-11-26T10:11:02.567Z,102187.50
2022-11-26T10:13:41.989Z,102201.97
2022-11-26T10:16:25.058Z,102194.34
2022-11-26T10:18:57.617Z,102195.81
2022-11-26T10:21:37.943Z,102192.03
2022-11-26T10:24:30.420Z,102190.19
2022-11-26T10:27:04.635Z,102144.28
2022-11-26T10:29:39.141Z,102158.91
2022-11-26T10:32:39.277Z,102186.50
2022-11-26T10:35:06.444Z,102194.25
2022-11-26T10:37:32.924Z,102192.09
2022-11-26T10:40:21.927Z,102182.03
2022-11-26T10:42:56.734Z,102185.00
2022-11-26T10:45:25.635Z,102185.09
2022-11-26T10:47:52.242Z,102197.03
2022-11-26T10:50:47.197Z,102193.34
2022-11-26T10:53:21.324Z,102195.38
2022-11-26T10:55:48.070Z,102163.00
2022-11-26T10:58:17.315Z,102197.25
2022-11-26T11:00:49.946Z,102181.63
2022-11-26T11:03:38.271Z,102141.34
2022-11-26T11:06:19.343Z,102156.38
2022-11-26T11:08:52.672Z,102154.97
2022-11-26T11:11:22.805Z,102174.00
2022-11-26T11:13:49.690Z,102178.00
2022-11-26T11:16:25.212Z,102139.38
2022-11-26T11:18:56.959Z,102178.50
2022-11-26T11:21:30.351Z,102143.25
2022-11-26T11:24:16.558Z,102193.81
2022-11-26T11:26:45.244Z,102188.69
2022-11-26T11:29:33.639Z,102171.47
2022-11-26T11:32:04.320Z,102167.44
2022-11-26T11:34:38.477Z,102146.28
2022-11-26T11:37:15.513Z,102172.66
2022-11-26T11:39:42.982Z,102163.22
2022-11-26T11:42:29.140Z,102169.69
2022-11-26T11:44:56.772Z,102169.09
2022-11-26T11:47:44.718Z,102169.13
2022-11-26T11:50:20.389Z,102175.41
2022-11-26T11:53:21.164Z,102163.44
2022-11-26T11:56:02.226Z,102156.50
2022-11-26T11:58:44.686Z,102156.09
2022-11-26T12:01:14.187Z,102166.56
2022-11-26T12:04:06.072Z,102160.16
2022-11-26T12:06:55.173Z,102136.22
2022-11-26T12:09:24.558Z,102166.81
2022-11-26T12:12:24.177Z,102156.03
2022-11-26T12:14:53.621Z,102127.28
2022-11-26T12:17:39.782Z,102158.97
2022-11-26T12:20:27.948Z,102170.25
2022-11-26T12:22:59.091Z,102160.59
2022-11-26T12:25:35.348Z,102143.28
2022-11-26T12:28:16.298Z,102169.41
2022-11-26T12:30:46.161Z,102171.88
2022-11-26T12:33:17.433Z,102165.53
2022-11-26T12:35:49.294Z,102140.94
2022-11-26T12:38:28.404Z,102161.53
2022-11-26T12:41:00.153Z,102153.66
2022-11-26T12:43:50.711Z,102159.41
2022-11-26T12:46:32.179Z,102161.50
2022-11-26T12:49:03.871Z,102161.38
2022-11-26T12:51:52.255Z,102160.91
2022-11-26T12:54:42.678Z,102165.44
2022-11-26T12:57:43.176Z,102174.84
2022-11-26T13:00:25.256Z,102169.66
2022-11-26T13:02:53.800Z,102138.56
2022-11-26T13:05:47.365Z,102167.66
2022-11-26T13:08:29.697Z,102171.88
2022-11-26T13:11:23.620Z,102170.16
2022-11-26T13:14:14.573Z,102167.94
2022-11-26T13:16:50.545Z,102157.75
2022-11-26T13:19:36.207Z,102134.19
2022-11-26T13:22:21.544Z,102158.13
2022-11-26T13:24:55.217Z,102156.69
2022-11-26T13:27:53.648Z,102155.22
2022-11-26T13:30:23.752Z,102131.53
2022-11-26T13:33:08.623Z,102165.25
2022-11-26T13:35:59.418Z,102160.69
2022-11-26T13:38:35.637Z,102120.63
2022-11-26T13:41:15.688Z,102121.88
2022-11-26T13:44:10.326Z,102154.63
2022-11-26T13:46:41.931Z,102151.63
2022-11-26T13:49:28.454Z,102128.69
2022-11-26T13:52:09.074Z,102141.09
2022-11-26T13:54:50.003Z,102152.41
2022-11-26T13:57:20.777Z,102148.00
2022-11-26T13:59:49.814Z,102146.97
2022-11-26T14:02:42.588Z,102135.31
2022-11-26T14:05:18.538Z,102112.03
2022-11-26T14:07:45.558Z,102094.00
2022-11-26T14:10:34.010Z,102132.75
2022-11-26T14:13:03.602Z,102138.28
2022-11-26T14:15:42.451Z,102129.81
2022-11-26T14:18:11.332Z,102100.94
2022-11-26T14:20:59.739Z,102120.59
2022-11-26T14:23:41.822Z,102135.44
2022-11-26T14:26:09.909Z,102138.19
2022-11-26T14:28:36.597Z,102092.34
2022-11-26T14:31:12.057Z,102128.75
2022-11-26T14:33:44.703Z,102102.09
2022-11-26T14:36:26.486Z,102127.41
2022-11-26T14:39:22.230Z,102131.06
2022-11-26T14:41:48.670Z,102129.22
2022-11-26T14:44:16.689Z,102125.31
2022-11-26T14:46:45.398Z,102121.03
2022-11-26T14:49:23.670Z,102116.19
2022-11-26T14:51:50.835Z,102122.13
2022-11-26T14:54:29.812Z,102116.66
2022-11-26T14:56:58.155Z,102111.63
2022-11-26T14:59:24.669Z,102110.63
2022-11-26T15:01:51.305Z,102116.88
2022-11-26T15:04:34.498Z,102053.69
2022-11-26T15:07:00.963Z,102106.06
2022-11-26T15:09:28.196Z,102109.84
2022-11-26T15:12:04.056Z,102096.88
2022-11-26T15:14:40.266Z,102080.66
2022-11-26T15:17:10.482Z,102065.31
2022-11-26T15:19:38.283Z,102106.91
2022-11-26T15:22:18.051Z,102114.50
2022-11-26T15:24:48.212Z,102114.66
2022-11-26T15:27:30.208Z,102117.56
2022-11-26T15:29:56.738Z,102104.97
2022-11-26T15:32:28.993Z,102125.31
2022-11-26T15:34:57.345Z,102079.97
2022-11-26T15:37:23.806Z,102131.66
2022-11-26T15:40:26.052Z,102126.50
2022-11-26T15:42:56.378Z,102111.94
2022-11-26T15:45:24.482Z,102110.38
2022-11-26T15:47:52.461Z,102121.97
2022-11-26T15:50:24.763Z,102121.59
2022-11-26T15:52:55.757Z,102123.38
2022-11-26T15:55:27.212Z,102122.94
2022-11-26T15:57:54.002Z,102121.41
2022-11-26T16:00:27.992Z,102116.59
2022-11-26T16:02:55.640Z,102129.22
2022-11-26T16:05:23.841Z,102125.28
2022-11-26T16:07:58.485Z,102119.31
2022-11-26T16:10:27.196Z,102106.03
2022-11-26T16:13:27.315Z,102091.84
2022-11-26T16:15:58.988Z,102122.56
2022-11-26T16:18:36.687Z,102122.16
2022-11-26T16:21:08.424Z,102128.47
2022-11-26T16:23:35.225Z,102136.88
2022-11-26T16:26:17.743Z,102131.41
2022-11-26T16:28:45.762Z,102129.13
2022-11-26T16:31:13.526Z,102103.50
2022-11-26T16:33:40.612Z,102132.28
2022-11-26T16:36:22.454Z,102126.00
2022-11-26T16:38:49.200Z,102085.59
2022-11-26T16:41:17.563Z,102120.25
2022-11-26T16:43:44.390Z,102116.59
2022-11-26T16:46:16.467Z,102105.44
2022-11-26T16:48:44.538Z,102132.97
2022-11-26T16:51:11.116Z,102098.94
2022-11-26T16:53:38.015Z,102128.66
2022-11-26T16:56:04.986Z,102124.47
2022-11-26T16:58:34.534Z,102117.44
2022-11-26T17:01:01.221Z,102114.38
2022-11-26T17:03:32.811Z,102107.75
2022-11-26T17:06:13.537Z,102088.88
2022-11-26T17:08:42.841Z,102126.03
2022-11-26T17:11:13.589Z,102129.34
2022-11-26T17:13:40.053Z,102099.91
2022-11-26T17:16:19.950Z,102079.41
2022-11-26T17:18:47.258Z,102127.25
2022-11-26T17:21:14.469Z,102134.91
2022-11-26T17:23:40.996Z,102130.72
2022-11-26T17:26:20.000Z,102128.94
2022-11-26T17:28:47.069Z,102089.69
2022-11-26T17:31:14.261Z,102142.78
2022-11-26T17:33:41.061Z,102139.31
2022-11-26T17:36:16.811Z,102140.19
2022-11-26T17:38:43.927Z,102143.56
2022-11-26T17:41:11.218Z,102092.09
2022-11-26T17:43:38.257Z,102128.47
2022-11-26T17:46:04.989Z,102135.38
2022-11-26T17:48:31.591Z,102094.91
2022-11-26T17:50:58.023Z,102114.03
2022-11-26T17:53:24.558Z,102130.69
2022-11-26T17:55:51.113Z,102141.69
2022-11-26T17:58:17.620Z,102132.69
2022-11-26T18:00:44.176Z,102129.59
2022-11-26T18:03:10.770Z,102088.53
2022-11-26T18:05:41.853Z,102107.69
2022-11-26T18:08:08.808Z,102122.28
2022-11-26T18:10:35.482Z,102103.47
2022-11-26T18:13:02.377Z,102063.69
2022-11-26T18:15:28.861Z,102111.00
2022-11-26T18:17:55.702Z,102099.09
2022-11-26T18:20:25.736Z,102067.59
2022-11-26T18:22:54.710Z,102110.41
2022-11-26T18:25:21.549Z,102105.66
2022-11-26T18:27:48.171Z,102103.38
2022-11-26T18:30:16.901Z,102104.16
2022-11-26T18:32:43.610Z,102089.22
2022-11-26T18:35:10.517Z,102100.03
2022-11-26T18:37:38.321Z,102099.13
2022-11-26T18:40:06.731Z,102095.22
2022-11-26T18:42:37.958Z,102108.28
2022-11-26T18:45:07.750Z,102089.16
2022-11-26T18:47:34.410Z,102091.78
2022-11-26T18:50:00.914Z,102087.97
2022-11-26T18:52:27.416Z,102094.75
2022-11-26T18:54:54.078Z,102091.13
2022-11-26T18:57:20.602Z,102040.84
2022-11-26T18:59:47.334Z,102073.84
2022-11-26T19:02:14.185Z,102082.25
2022-11-26T19:04:41.190Z,102084.38
2022-11-26T19:07:08.864Z,102074.44
2022-11-26T19:09:35.354Z,102079.38
2022-11-26T19:12:02.132Z,102032.78
2022-11-26T19:14:28.592Z,102071.66
2022-11-26T19:16:55.214Z,102075.88
2022-11-26T19:19:22.781Z,102090.97
2022-11-26T19:21:50.288Z,102044.34
2022-11-26T19:24:16.825Z,102079.91
2022-11-26T19:26:43.322Z,102080.53
2022-11-26T19:29:11.405Z,102065.66
2022-11-26T19:31:39.582Z,102081.19
2022-11-26T19:34:10.074Z,102082.91
2022-11-26T19:36:37.565Z,102064.91
2022-11-26T19:39:05.181Z,102042.78
2022-11-26T19:41:32.431Z,102071.63
2022-11-26T19:44:05.259Z,102080.97
2022-11-26T19:46:31.906Z,102026.41
2022-11-26T19:48:58.390Z,102019.75
2022-11-26T19:51:26.419Z,102046.78
2022-11-26T19:53:54.534Z,102087.97
2022-11-26T19:56:26.488Z,102059.72
2022-11-26T19:59:00.533Z,102087.50
2022-11-26T20:01:30.488Z,102084.06
2022-11-26T20:03:58.839Z,102091.44
2022-11-26T20:06:26.739Z,102084.16
2022-11-26T20:08:54.118Z,102089.53
2022-11-26T20:11:20.899Z,102079.03
2022-11-26T20:13:48.427Z,102081.97
2022-11-26T20:16:20.955Z,102041.66
2022-11-26T20:18:48.519Z,102071.97
2022-11-26T20:21:19.796Z,102075.06
2022-11-26T20:23:47.437Z,102068.88
2022-11-26T20:26:29.342Z,102069.94
2022-11-26T20:28:56.953Z,102079.31
2022-11-26T20:31:24.463Z,102088.88
2022-11-26T20:33:54.598Z,102093.97
2022-11-26T20:36:23.128Z,102095.25
2022-11-26T20:38:54.090Z,102093.84
2022-11-26T20:41:20.760Z,102064.97
2022-11-26T20:43:47.630Z,102099.50
2022-11-26T20:46:14.753Z,102068.31
2022-11-26T20:48:43.357Z,102113.69
2022-11-26T20:51:12.445Z,102120.69
2022-11-26T20:53:39.432Z,102125.66
2022-11-26T20:56:06.648Z,102126.50
2022-11-26T20:58:34.402Z,102121.63
2022-11-26T21:01:01.557Z,102098.81
2022-11-26T21:03:29.168Z,102118.44
2022-11-26T21:05:55.768Z,102126.47
2022-11-26T21:08:23.026Z,102110.75
2022-11-26T21:10:50.133Z,102118.63
2022-11-26T21:13:18.157Z,102122.72
2022-11-26T21:15:47.405Z,102128.19
2022-11-26T21:18:14.627Z,102064.25
2022-11-26T21:20:42.347Z,102131.31
2022-11-26T21:23:09.540Z,102124.94
2022-11-26T21:25:38.220Z,102136.44
2022-11-26T21:28:05.846Z,102113.41
2022-11-26T21:30:33.235Z,102108.16
2022-11-26T21:33:02.194Z,102127.75
2022-11-26T21:35:32.154Z,102121.53
2022-11-26T21:37:59.199Z,102101.78
2022-11-26T21:40:27.410Z,102122.88
2022-11-26T21:42:53.915Z,102078.03
2022-11-26T21:45:20.648Z,102120.91
2022-11-26T21:47:49.963Z,102113.09
2022-11-26T21:50:16.560Z,102113.22
2022-11-26T21:52:43.472Z,102106.78
2022-11-26T21:55:10.100Z,102109.69
2022-11-26T21:57:36.622Z,102091.50
2022-11-26T22:00:04.730Z,102102.22
2022-11-26T22:02:31.281Z,102090.84
2022-11-26T22:04:58.228Z,102072.72
2022-11-26T22:07:24.859Z,102083.97
2022-11-26T22:09:51.419Z,102074.84
2022-11-26T22:12:17.904Z,102055.09
2022-11-26T22:14:44.373Z,102063.91
2022-11-26T22:17:10.854Z,102062.03
2022-11-26T22:19:37.766Z,102007.03
2022-11-26T22:22:04.737Z,102038.34
2022-11-26T22:24:31.436Z,102000.31
2022-11-26T22:26:59.261Z,102029.78
2022-11-26T22:29:25.757Z,102027.78
2022-11-26T22:31:52.303Z,102020.38
2022-11-26T22:34:21.813Z,102012.72
2022-11-26T22:36:48.362Z,101994.44
2022-11-26T22:39:16.776Z,101986.47
2022-11-26T22:41:44.287Z,102000.16
2022-11-26T22:44:11.094Z,101992.09
2022-11-26T22:46:41.013Z,101993.63
2022-11-26T22:49:10.323Z,101994.94
2022-11-26T22:51:36.880Z,101982.78
2022-11-26T22:54:07.085Z,101989.28
2022-11-26T22:56:34.287Z,101993.81
2022-11-26T22:59:01.488Z,101991.44
2022-11-26T23:01:30.681Z,101994.97
2022-11-26T23:03:58.958Z,102004.50
2022-11-26T23:06:29.834Z,101998.16
2022-11-26T23:08:57.603Z,102003.41
2022-11-26T23:11:26.550Z,101950.47
2022-11-26T23:13:53.475Z,102000.72
2022-11-26T23:16:22.315Z,101999.09
2022-11-26T23:18:48.867Z,101960.69
2022-11-26T23:21:19.127Z,101996.94
2022-11-26T23:23:46.175Z,101987.81
2022-11-26T23:26:27.521Z,101977.09
2022-11-26T23:28:55.829Z,101933.31
2022-11-26T23:31:24.702Z,101975.34
2022-11-26T23:33:51.393Z,101947.66
2022-11-26T23:36:19.101Z,101961.75
2022-11-26T23:38:46.102Z,101942.88
2022-11-26T23:41:12.587Z,101961.47
2022-11-26T23:43:39.668Z,101968.75
2022-11-26T23:46:15.586Z,101957.09
2022-11-26T23:48:42.867Z,101952.00
2022-11-26T23:51:11.933Z,101948.88
2022-11-26T23:53:40.368Z,101958.00
2022-11-26T23:56:10.725Z,101897.84
2022-11-26T23:58:37.561Z,101949.97
